createdAt,value
2023-01-25T00:02:11.153Z,25.17
2023-01-25T00:04:38.565Z,24.80
2023-01-25T00:07:05.937Z,25.70
2023-01-25T00:09:33.309Z,26.35
2023-01-25T00:12:00.725Z,27.23
2023-01-25T00:14:28.084Z,24.95
2023-01-25T00:16:55.395Z,25.27
2023-01-25T00:19:24.208Z,25.45
2023-01-25T00:21:51.465Z,25.92
2023-01-25T00:24:19.074Z,25.33
2023-01-25T00:26:46.442Z,25.02
2023-01-25T00:29:14.769Z,25.58
2023-01-25T00:31:51.145Z,26.63
2023-01-25T00:34:27.248Z,24.98
2023-01-25T00:37:13.184Z,25.25
2023-01-25T00:39:41.365Z,25.02
2023-01-25T00:42:12.461Z,26.38
2023-01-25T00:44:40.611Z,25.27
2023-01-25T00:47:11.256Z,25.40
2023-01-25T00:49:40.228Z,25.73
2023-01-25T00:52:08.672Z,25.08
2023-01-25T00:54:36.019Z,26.85
2023-01-25T00:57:04.557Z,27.05
2023-01-25T00:59:31.970Z,26.77
2023-01-25T01:01:59.403Z,27.60
2023-01-25T01:04:30.471Z,25.70
2023-01-25T01:06:58.022Z,24.25
2023-01-25T01:09:25.368Z,27.45
2023-01-25T01:11:54.209Z,26.08
2023-01-25T01:14:23.938Z,25.70
2023-01-25T01:16:51.467Z,25.50
2023-01-25T01:19:19.517Z,26.45
2023-01-25T01:21:47.012Z,24.75
2023-01-25T01:24:14.429Z,25.75
2023-01-25T01:26:41.874Z,26.05
2023-01-25T01:29:09.258Z,26.15
2023-01-25T01:31:37.264Z,26.33
2023-01-25T01:34:15.202Z,25.42
2023-01-25T01:36:42.871Z,25.23
2023-01-25T01:39:10.897Z,24.40
2023-01-25T01:41:38.926Z,24.95
2023-01-25T01:44:11.408Z,26.23
2023-01-25T01:46:40.368Z,26.50
2023-01-25T01:49:24.305Z,25.00
2023-01-25T01:52:01.733Z,24.95
2023-01-25T01:54:35.201Z,25.88
2023-01-25T01:57:12.229Z,29.05
2023-01-25T01:59:51.321Z,26.27
2023-01-25T02:02:18.982Z,26.27
2023-01-25T02:04:49.282Z,26.13
2023-01-25T02:07:43.758Z,27.63
2023-01-25T02:10:12.570Z,25.90
2023-01-25T02:12:42.761Z,27.42
2023-01-25T02:15:11.110Z,26.38
2023-01-25T02:17:40.567Z,27.42
2023-01-25T02:20:24.382Z,26.30
2023-01-25T02:23:20.897Z,25.65
2023-01-25T02:25:48.809Z,26.60
2023-01-25T02:28:25.938Z,24.17
2023-01-25T02:30:53.401Z,29.55
2023-01-25T02:33:26.955Z,25.17
2023-01-25T02:36:00.445Z,25.05
2023-01-25T02:38:33.332Z,25.17
2023-01-25T02:41:23.875Z,25.38
2023-01-25T02:43:51.735Z,24.23
2023-01-25T02:46:29.553Z,24.58
2023-01-25T02:48:58.550Z,25.48
2023-01-25T02:51:30.964Z,25.20
2023-01-25T02:53:58.889Z,23.95
2023-01-25T02:56:26.927Z,25.63
2023-01-25T02:58:54.380Z,22.95
2023-01-25T03:01:21.851Z,24.25
2023-01-25T03:03:49.356Z,23.88
2023-01-25T03:06:18.476Z,24.75
2023-01-25T03:08:45.816Z,22.33
2023-01-25T03:11:14.493Z,23.45
2023-01-25T03:13:43.938Z,23.92
2023-01-25T03:16:13.357Z,26.40
2023-01-25T03:18:43.599Z,24.00
2023-01-25T03:21:17.293Z,25.38
2023-01-25T03:23:46.302Z,26.38
2023-01-25T03:26:20.576Z,26.50
2023-01-25T03:29:06.562Z,26.33
2023-01-25T03:31:37.917Z,25.80
2023-01-25T03:34:05.368Z,23.48
2023-01-25T03:36:37.580Z,22.42
2023-01-25T03:39:05.332Z,25.15
2023-01-25T03:41:38.679Z,23.88
2023-01-25T03:44:11.617Z,25.50
2023-01-25T03:46:40.680Z,22.95
2023-01-25T03:49:08.806Z,25.60
2023-01-25T03:51:36.943Z,23.52
2023-01-25T03:54:05.007Z,21.58
2023-01-25T03:56:35.268Z,22.85
2023-01-25T03:59:13.245Z,23.88
2023-01-25T04:01:40.904Z,25.92
2023-01-25T04:04:08.402Z,24.50
2023-01-25T04:06:37.940Z,23.80
2023-01-25T04:09:05.413Z,23.58
2023-01-25T04:11:39.029Z,26.75
2023-01-25T04:14:06.617Z,24.35
2023-01-25T04:16:43.364Z,23.48
2023-01-25T04:19:29.082Z,56.13
2023-01-25T04:22:00.054Z,59.35
2023-01-25T04:24:33.143Z,65.87
2023-01-25T04:27:00.609Z,33.28
2023-01-25T04:29:40.653Z,27.52
2023-01-25T04:32:13.495Z,31.38
2023-01-25T04:34:41.030Z,26.35
2023-01-25T04:37:13.238Z,27.65
2023-01-25T04:39:51.079Z,25.67
2023-01-25T04:42:18.519Z,24.05
2023-01-25T04:44:49.486Z,25.67
2023-01-25T04:47:17.457Z,26.23
2023-01-25T04:49:44.781Z,24.05
2023-01-25T04:52:13.788Z,25.17
2023-01-25T04:54:41.170Z,22.67
2023-01-25T04:57:08.905Z,25.00
2023-01-25T04:59:36.285Z,24.15
2023-01-25T05:02:03.750Z,22.88
2023-01-25T05:04:31.583Z,25.05
2023-01-25T05:06:59.321Z,25.48
2023-01-25T05:09:27.572Z,25.55
2023-01-25T05:14:45.916Z,24.58
2023-01-25T05:17:13.263Z,23.40
2023-01-25T05:19:41.638Z,26.08
2023-01-25T05:22:20.947Z,23.95
2023-01-25T05:24:51.999Z,26.33
2023-01-25T05:27:21.137Z,24.38
2023-01-25T05:29:54.469Z,25.75
2023-01-25T05:32:27.618Z,24.03
2023-01-25T05:34:55.047Z,25.83
2023-01-25T05:37:23.116Z,24.92
2023-01-25T05:39:58.037Z,24.40
2023-01-25T05:42:26.050Z,23.38
2023-01-25T05:44:54.710Z,24.70
2023-01-25T05:47:22.237Z,23.65
2023-01-25T05:49:49.755Z,24.08
2023-01-25T05:52:25.043Z,23.27
2023-01-25T05:54:52.494Z,23.02
2023-01-25T05:57:19.854Z,24.40
2023-01-25T05:59:47.346Z,23.92
2023-01-25T06:02:18.792Z,24.10
2023-01-25T06:04:46.452Z,23.83
2023-01-25T06:07:14.563Z,23.75
2023-01-25T06:09:42.745Z,24.25
2023-01-25T06:12:11.001Z,24.95
2023-01-25T06:14:38.423Z,21.38
2023-01-25T06:17:06.706Z,22.92
2023-01-25T06:19:52.787Z,22.02
2023-01-25T06:22:26.571Z,21.17
2023-01-25T06:24:53.977Z,22.58
2023-01-25T06:27:21.244Z,21.92
2023-01-25T06:29:48.561Z,21.92
2023-01-25T06:32:15.979Z,20.75
2023-01-25T06:34:43.547Z,21.27
2023-01-25T06:37:17.097Z,20.35
2023-01-25T06:39:44.438Z,18.42
2023-01-25T06:42:11.796Z,19.50
2023-01-25T06:44:39.261Z,19.45
2023-01-25T06:47:09.431Z,19.70
2023-01-25T06:49:36.895Z,19.23
2023-01-25T06:52:04.531Z,19.35
2023-01-25T06:54:31.981Z,19.98
2023-01-25T06:56:59.790Z,20.65
2023-01-25T06:59:27.183Z,21.50
2023-01-25T07:01:54.578Z,21.05
2023-01-25T07:04:22.035Z,21.77
2023-01-25T07:09:30.660Z,20.60
2023-01-25T07:11:57.951Z,20.70
2023-01-25T07:14:25.375Z,20.92
2023-01-25T07:16:52.723Z,19.63
2023-01-25T07:19:20.135Z,19.83
2023-01-25T07:21:47.495Z,19.30
2023-01-25T07:24:18.001Z,19.55
2023-01-25T07:26:46.006Z,17.15
2023-01-25T07:29:15.271Z,19.95
2023-01-25T07:31:42.945Z,19.85
2023-01-25T07:36:55.196Z,18.70
2023-01-25T07:39:22.540Z,20.13
2023-01-25T07:41:49.906Z,18.73
2023-01-25T07:44:19.901Z,18.88
2023-01-25T07:49:35.314Z,18.58
2023-01-25T07:52:02.775Z,17.83
2023-01-25T07:57:11.317Z,19.02
2023-01-25T07:59:38.618Z,19.85
2023-01-25T08:02:06.284Z,21.17
2023-01-25T08:04:33.629Z,18.20
2023-01-25T08:09:42.519Z,23.02
2023-01-25T08:12:09.962Z,21.15
2023-01-25T08:14:38.573Z,20.52
2023-01-25T08:17:05.922Z,21.05
2023-01-25T08:19:33.357Z,21.02
2023-01-25T08:22:00.637Z,19.85
2023-01-25T08:24:28.118Z,21.77
2023-01-25T08:26:55.416Z,22.35
2023-01-25T08:29:23.818Z,22.38
2023-01-25T08:31:51.210Z,24.20
2023-01-25T08:34:18.568Z,24.20
2023-01-25T08:36:45.964Z,23.30
2023-01-25T08:39:13.707Z,24.58
2023-01-25T08:41:42.836Z,23.23
2023-01-25T08:44:10.776Z,26.45
2023-01-25T08:46:38.459Z,25.85
2023-01-25T08:49:06.290Z,25.20
2023-01-25T08:51:34.467Z,22.85
2023-01-25T08:54:06.730Z,24.85
2023-01-25T08:56:34.419Z,24.45
2023-01-25T08:59:01.846Z,24.85
2023-01-25T09:01:29.644Z,23.15
2023-01-25T09:03:57.139Z,21.92
2023-01-25T09:06:24.791Z,51.50
2023-01-25T09:08:52.214Z,30.65
2023-01-25T09:11:22.344Z,25.05
2023-01-25T09:13:49.779Z,21.38
2023-01-25T09:16:22.917Z,24.00
2023-01-25T09:18:51.044Z,20.40
2023-01-25T09:21:19.490Z,20.23
2023-01-25T09:24:05.506Z,19.80
2023-01-25T09:26:34.853Z,19.67
2023-01-25T09:29:02.319Z,18.27
2023-01-25T09:31:30.380Z,18.25
2023-01-25T09:34:16.856Z,19.13
2023-01-25T09:36:44.499Z,19.33
2023-01-25T09:39:15.147Z,19.20
2023-01-25T09:42:22.708Z,19.13
2023-01-25T09:47:45.695Z,18.55
2023-01-25T09:53:42.778Z,18.67
2023-01-25T09:58:57.472Z,19.33
2023-01-25T10:01:45.071Z,20.85
2023-01-25T10:08:03.830Z,20.38
2023-01-25T10:10:38.684Z,28.83
2023-01-25T10:13:11.918Z,24.60
2023-01-25T10:15:48.020Z,19.58
2023-01-25T10:18:30.189Z,19.08
2023-01-25T10:24:25.462Z,18.95
2023-01-25T10:27:08.622Z,19.20
2023-01-25T10:29:37.978Z,18.25
2023-01-25T10:32:25.407Z,19.63
2023-01-25T10:35:08.706Z,19.63
2023-01-25T10:37:36.727Z,21.57
2023-01-25T10:43:18.355Z,26.75
2023-01-25T10:45:46.268Z,20.83
2023-01-25T10:48:30.061Z,17.92
2023-01-25T10:50:57.878Z,18.42
2023-01-25T10:53:35.219Z,17.95
2023-01-25T10:56:10.137Z,16.50
2023-01-25T10:58:39.858Z,17.65
2023-01-25T11:01:13.407Z,18.00
2023-01-25T11:03:47.408Z,16.80
2023-01-25T11:08:57.131Z,16.15
2023-01-25T11:11:40.669Z,15.68
2023-01-25T11:14:19.103Z,16.55
2023-01-25T11:19:35.510Z,18.80
2023-01-25T11:22:06.363Z,23.67
2023-01-25T11:24:37.330Z,21.35
2023-01-25T11:27:19.020Z,26.05
2023-01-25T11:30:07.431Z,24.42
2023-01-25T11:35:21.426Z,21.95
2023-01-25T11:38:07.491Z,17.17
2023-01-25T11:40:49.222Z,17.48
2023-01-25T11:43:55.077Z,17.20
2023-01-25T11:46:33.319Z,18.00
2023-01-25T11:49:25.758Z,18.27
2023-01-25T11:52:02.169Z,16.95
2023-01-25T11:55:08.177Z,16.15
2023-01-25T11:57:50.084Z,16.88
2023-01-25T12:00:40.917Z,23.40
2023-01-25T12:03:27.128Z,18.73
2023-01-25T12:06:28.024Z,17.58
2023-01-25T12:09:26.318Z,18.45
2023-01-25T12:12:14.453Z,18.40
2023-01-25T12:14:48.612Z,17.48
2023-01-25T12:17:43.792Z,17.15
2023-01-25T12:20:41.604Z,17.15
2023-01-25T12:23:18.233Z,18.75
2023-01-25T12:25:48.457Z,17.63
2023-01-25T12:28:29.483Z,18.40
2023-01-25T12:31:13.455Z,17.05
2023-01-25T12:33:48.168Z,17.95
2023-01-25T12:36:30.808Z,17.65
2023-01-25T12:39:09.451Z,19.70
2023-01-25T12:41:58.100Z,18.10
2023-01-25T12:44:41.520Z,17.98
2023-01-25T12:47:21.011Z,20.40
2023-01-25T12:52:48.392Z,19.98
2023-01-25T12:55:18.079Z,20.70
2023-01-25T12:57:51.278Z,20.60
2023-01-25T13:00:29.715Z,20.67
2023-01-25T13:02:57.782Z,20.33
2023-01-25T13:05:52.356Z,20.98
2023-01-25T13:11:38.439Z,20.92
2023-01-25T13:14:23.489Z,21.83
2023-01-25T13:17:09.248Z,22.73
2023-01-25T13:19:37.144Z,23.85
2023-01-25T13:22:04.867Z,24.73
2023-01-25T13:24:34.939Z,24.88
2023-01-25T13:27:24.664Z,24.23
2023-01-25T13:30:03.215Z,24.67
2023-01-25T13:32:33.669Z,23.05
2023-01-25T13:35:01.924Z,24.95
2023-01-25T13:37:31.899Z,23.35
2023-01-25T13:40:26.114Z,23.75
2023-01-25T13:43:11.981Z,25.48
2023-01-25T13:45:41.525Z,24.25
2023-01-25T13:48:17.750Z,22.88
2023-01-25T13:50:51.357Z,24.15
2023-01-25T13:53:20.751Z,25.90
2023-01-25T13:55:53.802Z,24.00
2023-01-25T13:58:30.357Z,27.40
2023-01-25T14:00:58.800Z,27.67
2023-01-25T14:04:05.307Z,25.80
2023-01-25T14:06:37.373Z,23.88
2023-01-25T14:09:11.933Z,23.73
2023-01-25T14:11:56.066Z,25.00
2023-01-25T14:14:31.953Z,22.10
2023-01-25T14:17:09.590Z,22.20
2023-01-25T14:19:44.664Z,21.95
2023-01-25T14:22:20.188Z,22.10
2023-01-25T14:25:03.082Z,22.08
2023-01-25T14:27:30.818Z,21.90
2023-01-25T14:29:58.156Z,20.73
2023-01-25T14:32:27.714Z,22.27
2023-01-25T14:34:55.211Z,19.83
2023-01-25T14:37:22.993Z,21.05
2023-01-25T14:39:52.089Z,21.73
2023-01-25T14:42:20.418Z,19.30
2023-01-25T14:44:48.185Z,20.13
2023-01-25T14:47:32.842Z,20.23
2023-01-25T14:50:38.051Z,19.35
2023-01-25T14:53:24.368Z,23.65
2023-01-25T14:55:52.137Z,18.48
2023-01-25T14:58:25.269Z,19.45
2023-01-25T15:00:58.960Z,19.73
2023-01-25T15:03:27.566Z,17.10
2023-01-25T15:05:56.494Z,19.75
2023-01-25T15:08:40.952Z,17.63
2023-01-25T15:11:37.974Z,19.65
2023-01-25T15:14:17.545Z,21.90
2023-01-25T15:16:45.481Z,21.17
2023-01-25T15:19:25.017Z,19.50
2023-01-25T15:21:54.226Z,21.10
2023-01-25T15:24:22.033Z,21.92
2023-01-25T15:26:51.285Z,20.00
2023-01-25T15:29:22.115Z,22.48
2023-01-25T15:31:51.393Z,21.65
2023-01-25T15:34:21.444Z,21.15
2023-01-25T15:36:48.889Z,21.65
2023-01-25T15:39:19.726Z,22.27
2023-01-25T15:41:48.047Z,21.90
2023-01-25T15:44:17.607Z,21.63
2023-01-25T15:46:48.429Z,21.80
2023-01-25T15:49:24.489Z,20.42
2023-01-25T15:51:51.768Z,23.48
2023-01-25T15:54:19.082Z,20.55
2023-01-25T15:56:51.584Z,19.92
2023-01-25T15:59:19.427Z,21.23
2023-01-25T16:01:46.779Z,21.00
2023-01-25T16:04:14.477Z,20.25
2023-01-25T16:06:52.025Z,19.05
2023-01-25T16:09:29.999Z,20.05
2023-01-25T16:11:59.737Z,38.13
2023-01-25T16:14:32.120Z,32.30
2023-01-25T16:17:05.909Z,33.08
2023-01-25T16:22:01.461Z,22.65
2023-01-25T16:24:28.933Z,21.27
2023-01-25T16:26:58.557Z,23.70
2023-01-25T16:29:26.605Z,22.45
2023-01-25T16:31:54.658Z,21.45
2023-01-25T16:34:22.655Z,22.00
2023-01-25T16:36:51.147Z,21.20
2023-01-25T16:39:22.436Z,23.38
2023-01-25T16:41:50.018Z,21.45
2023-01-25T16:44:17.584Z,22.15
2023-01-25T16:46:45.595Z,20.52
2023-01-25T16:49:21.430Z,20.88
2023-01-25T16:51:51.985Z,20.75
2023-01-25T16:54:20.768Z,19.73
2023-01-25T16:56:49.211Z,32.80
2023-01-25T16:59:17.658Z,30.52
2023-01-25T17:01:45.944Z,24.10
2023-01-25T17:04:13.608Z,23.85
2023-01-25T17:06:45.085Z,21.13
2023-01-25T17:09:24.816Z,22.38
2023-01-25T17:11:54.096Z,22.83
2023-01-25T17:14:22.116Z,22.40
2023-01-25T17:16:51.979Z,22.13
2023-01-25T17:19:20.165Z,20.13
2023-01-25T17:21:47.803Z,22.33
2023-01-25T17:24:17.436Z,20.63
2023-01-25T17:26:45.089Z,20.70
2023-01-25T17:29:13.945Z,18.52
2023-01-25T17:31:42.441Z,17.65
2023-01-25T17:34:13.478Z,18.23
2023-01-25T17:36:40.927Z,17.58
2023-01-25T17:39:08.581Z,19.30
2023-01-25T17:41:36.040Z,17.30
2023-01-25T17:44:03.565Z,15.63
2023-01-25T17:46:33.916Z,19.63
2023-01-25T17:49:02.570Z,15.90
2023-01-25T17:51:31.571Z,16.10
2023-01-25T17:53:58.905Z,16.10
2023-01-25T17:56:26.888Z,16.90
2023-01-25T17:58:54.733Z,17.15
2023-01-25T18:01:24.956Z,15.60
2023-01-25T18:03:54.036Z,14.38
2023-01-25T18:06:25.178Z,14.07
2023-01-25T18:08:55.501Z,12.63
2023-01-25T18:11:26.074Z,14.25
2023-01-25T18:13:56.917Z,14.93
2023-01-25T18:16:26.135Z,14.77
2023-01-25T18:18:56.079Z,14.10
2023-01-25T18:21:25.682Z,16.05
2023-01-25T18:23:55.776Z,18.58
2023-01-25T18:26:28.763Z,15.02
2023-01-25T18:29:02.897Z,17.60
2023-01-25T18:31:30.431Z,14.73
2023-01-25T18:33:58.422Z,15.52
2023-01-25T18:36:26.261Z,14.52
2023-01-25T18:38:55.244Z,14.07
2023-01-25T18:41:22.969Z,13.45
2023-01-25T18:43:50.839Z,13.50
2023-01-25T18:46:18.430Z,14.07
2023-01-25T18:48:47.383Z,14.32
2023-01-25T18:51:18.040Z,14.73
2023-01-25T18:53:47.854Z,14.13
2023-01-25T18:56:18.006Z,15.75
2023-01-25T18:58:45.829Z,15.30
2023-01-25T19:01:20.349Z,14.93
2023-01-25T19:03:49.762Z,14.75
2023-01-25T19:06:19.064Z,14.15
2023-01-25T19:08:52.060Z,15.85
2023-01-25T19:11:21.291Z,17.73
2023-01-25T19:13:49.229Z,17.38
2023-01-25T19:16:24.590Z,15.88
2023-01-25T19:18:54.611Z,16.27
2023-01-25T19:21:26.386Z,16.48
2023-01-25T19:23:55.150Z,15.43
2023-01-25T19:26:24.724Z,16.77
2023-01-25T19:28:53.119Z,17.10
2023-01-25T19:31:26.014Z,16.65
2023-01-25T19:34:00.682Z,16.80
2023-01-25T19:39:14.744Z,14.82
2023-01-25T19:41:42.082Z,15.30
2023-01-25T19:44:12.601Z,16.23
2023-01-25T19:46:40.256Z,17.42
2023-01-25T19:49:08.771Z,15.75
2023-01-25T19:51:40.048Z,16.60
2023-01-25T19:54:17.506Z,16.17
2023-01-25T19:56:47.032Z,17.38
2023-01-25T19:59:22.334Z,18.08
2023-01-25T20:01:49.882Z,17.70
2023-01-25T20:04:20.351Z,18.65
2023-01-25T20:06:48.895Z,18.40
2023-01-25T20:12:02.875Z,19.77
2023-01-25T20:14:30.271Z,25.38
2023-01-25T20:16:57.567Z,22.38
2023-01-25T20:19:24.989Z,18.42
2023-01-25T20:21:52.343Z,18.95
2023-01-25T20:24:19.793Z,18.88
2023-01-25T20:26:47.597Z,19.50
2023-01-25T20:29:15.059Z,18.00
2023-01-25T20:31:44.330Z,17.80
2023-01-25T20:34:17.841Z,18.15
2023-01-25T20:36:46.008Z,18.17
2023-01-25T20:39:22.500Z,17.90
2023-01-25T20:41:53.573Z,16.70
2023-01-25T20:44:21.363Z,16.35
2023-01-25T20:46:50.141Z,16.63
2023-01-25T20:49:19.105Z,16.52
2023-01-25T20:51:47.759Z,15.68
2023-01-25T20:54:16.460Z,14.75
2023-01-25T20:56:47.979Z,14.70
2023-01-25T20:59:16.744Z,15.52
2023-01-25T21:01:44.098Z,14.95
2023-01-25T21:04:11.917Z,14.55
2023-01-25T21:06:39.272Z,15.52
2023-01-25T21:09:06.943Z,14.70
2023-01-25T21:11:34.739Z,15.45
2023-01-25T21:14:02.232Z,14.73
2023-01-25T21:16:29.887Z,13.98
2023-01-25T21:19:00.345Z,14.40
2023-01-25T21:21:30.153Z,14.82
2023-01-25T21:26:41.254Z,15.20
2023-01-25T21:29:08.737Z,14.13
2023-01-25T21:31:39.533Z,14.18
2023-01-25T21:34:07.117Z,14.63
2023-01-25T21:36:34.441Z,14.70
2023-01-25T21:39:02.222Z,12.70
2023-01-25T21:41:33.816Z,12.30
2023-01-25T21:44:20.734Z,11.15
2023-01-25T21:47:12.413Z,12.18
2023-01-25T21:49:54.025Z,11.80
2023-01-25T21:52:21.440Z,11.07
2023-01-25T21:54:48.904Z,10.57
2023-01-25T21:57:16.261Z,10.93
2023-01-25T21:59:43.591Z,21.58
2023-01-25T22:02:14.593Z,17.13
2023-01-25T22:07:23.171Z,12.13
2023-01-25T22:09:50.617Z,14.95
2023-01-25T22:14:59.135Z,20.00
2023-01-25T22:17:27.828Z,20.05
2023-01-25T22:19:55.235Z,19.05
2023-01-25T22:22:22.505Z,16.05
2023-01-25T22:24:49.857Z,14.05
2023-01-25T22:27:59.458Z,12.77
2023-01-25T22:30:26.800Z,13.15
2023-01-25T22:32:54.092Z,12.40
2023-01-25T22:35:21.438Z,13.40
2023-01-25T22:37:48.713Z,12.93
2023-01-25T22:42:57.678Z,12.48
2023-01-25T22:45:24.923Z,12.68
2023-01-25T22:47:52.283Z,12.02
2023-01-25T22:50:19.656Z,11.55
2023-01-25T22:52:49.145Z,11.85
2023-01-25T22:55:16.524Z,11.52
2023-01-25T22:57:43.928Z,10.23
2023-01-25T23:00:12.191Z,11.43
2023-01-25T23:02:39.708Z,10.07
2023-01-25T23:05:07.652Z,14.30
2023-01-25T23:07:34.926Z,13.73
2023-01-25T23:10:02.235Z,13.60
2023-01-25T23:12:29.639Z,14.52
2023-01-25T23:14:59.261Z,20.30
2023-01-25T23:17:45.479Z,17.48
2023-01-25T23:20:13.707Z,16.67
2023-01-25T23:22:42.170Z,12.55
2023-01-25T23:25:11.327Z,13.52
2023-01-25T23:27:39.108Z,11.95
2023-01-25T23:30:07.466Z,11.52
2023-01-25T23:32:34.955Z,10.55
2023-01-25T23:35:02.289Z,10.45
2023-01-25T23:37:29.609Z,10.98
2023-01-25T23:39:57.152Z,10.98
2023-01-25T23:42:24.529Z,11.52
2023-01-25T23:44:52.149Z,10.52
2023-01-25T23:47:19.615Z,11.60
2023-01-25T23:49:47.425Z,12.40
2023-01-25T23:52:14.715Z,11.60
2023-01-25T23:54:42.079Z,12.63
2023-01-25T23:57:09.342Z,12.30
2023-01-25T23:59:36.716Z,14.50
